createdAt,value
2019-05-30T00:00:49.965Z,18.90
2019-05-30T00:03:54.266Z,18.90
2019-05-30T00:06:58.755Z,18.90
2019-05-30T00:10:03.208Z,19.00
2019-05-30T00:13:07.629Z,19.00
2019-05-30T00:16:11.921Z,19.00
2019-05-30T00:19:16.230Z,19.00
2019-05-30T00:22:20.601Z,19.00
2019-05-30T00:25:25.009Z,19.00
2019-05-30T00:28:29.373Z,19.00
2019-05-30T00:31:33.743Z,19.00
2019-05-30T00:34:38.121Z,19.00
2019-05-30T00:37:42.537Z,18.90
2019-05-30T00:40:47.238Z,18.80
2019-05-30T00:43:51.660Z,18.80
2019-05-30T00:46:56.123Z,18.70
2019-05-30T00:50:00.563Z,18.70
2019-05-30T00:53:05.393Z,18.70
2019-05-30T00:56:09.950Z,18.70
2019-05-30T00:59:14.338Z,18.60
2019-05-30T01:02:18.662Z,18.60
2019-05-30T01:05:22.955Z,18.60
2019-05-30T01:08:27.270Z,18.70
2019-05-30T01:11:31.659Z,18.80
2019-05-30T01:14:36.064Z,18.90
2019-05-30T01:17:40.361Z,18.90
2019-05-30T01:20:45.535Z,18.90
2019-05-30T01:23:49.850Z,19.00
2019-05-30T01:26:54.938Z,19.00
2019-05-30T01:29:59.573Z,19.00
2019-05-30T01:33:04.011Z,19.00
2019-05-30T01:36:08.330Z,19.00
2019-05-30T01:39:12.749Z,19.00
2019-05-30T01:42:17.204Z,19.00
2019-05-30T01:45:21.752Z,19.00
2019-05-30T01:48:26.039Z,19.10
2019-05-30T01:51:30.289Z,19.00
2019-05-30T01:54:34.614Z,18.90
2019-05-30T01:57:38.936Z,18.90
2019-05-30T02:00:43.304Z,18.80
2019-05-30T02:03:49.300Z,18.80
2019-05-30T02:06:53.742Z,18.80
2019-05-30T02:09:59.164Z,18.70
2019-05-30T02:13:03.523Z,18.70
2019-05-30T02:16:07.909Z,18.70
2019-05-30T02:19:12.259Z,18.70
2019-05-30T02:22:16.604Z,18.70
2019-05-30T02:25:20.889Z,18.70
2019-05-30T02:28:25.264Z,18.80
2019-05-30T02:31:39.129Z,18.90
2019-05-30T02:34:35.580Z,18.90
2019-05-30T02:37:39.970Z,19.00
2019-05-30T02:40:44.306Z,19.00
2019-05-30T02:43:48.679Z,19.00
2019-05-30T02:46:58.138Z,19.00
2019-05-30T02:50:04.391Z,19.00
2019-05-30T02:53:10.553Z,19.00
2019-05-30T02:56:14.517Z,19.00
2019-05-30T02:59:18.774Z,19.00
2019-05-30T03:02:23.131Z,19.10
2019-05-30T03:05:27.568Z,19.00
2019-05-30T03:08:31.854Z,19.00
2019-05-30T03:11:36.601Z,19.00
2019-05-30T03:14:40.900Z,18.90
2019-05-30T03:17:45.202Z,18.80
2019-05-30T03:20:49.491Z,18.80
2019-05-30T03:23:53.826Z,18.80
2019-05-30T03:26:58.194Z,18.70
2019-05-30T03:30:07.550Z,18.70
2019-05-30T03:33:24.383Z,18.70
2019-05-30T03:36:27.645Z,18.70
2019-05-30T03:39:20.635Z,18.70
2019-05-30T03:42:26.359Z,18.60
2019-05-30T03:45:32.579Z,18.70
2019-05-30T03:48:37.316Z,18.80
2019-05-30T03:51:43.569Z,18.90
2019-05-30T03:54:49.570Z,19.00
2019-05-30T03:58:00.236Z,19.00
2019-05-30T04:01:08.041Z,19.00
2019-05-30T04:04:20.595Z,19.00
2019-05-30T04:07:27.524Z,19.00
2019-05-30T04:10:36.469Z,19.00
2019-05-30T04:13:54.382Z,19.10
2019-05-30T04:16:58.988Z,19.00
2019-05-30T04:20:03.506Z,19.00
2019-05-30T04:23:08.478Z,19.00
2019-05-30T04:26:13.872Z,19.10
2019-05-30T04:29:19.047Z,19.00
2019-05-30T04:32:23.588Z,18.90
2019-05-30T04:35:27.951Z,18.90
2019-05-30T04:38:32.292Z,18.80
2019-05-30T04:41:37.987Z,18.80
2019-05-30T04:44:42.296Z,18.70
2019-05-30T04:47:46.568Z,18.70
2019-05-30T04:50:50.882Z,18.70
2019-05-30T04:53:55.166Z,18.60
2019-05-30T04:56:59.554Z,18.60
2019-05-30T05:00:04.614Z,18.60
2019-05-30T05:03:08.996Z,18.70
2019-05-30T05:06:13.789Z,18.80
2019-05-30T05:09:18.356Z,18.90
2019-05-30T05:12:23.560Z,18.90
2019-05-30T05:15:27.899Z,19.00
2019-05-30T05:18:32.306Z,19.00
2019-05-30T05:21:36.637Z,19.00
2019-05-30T05:24:40.912Z,19.00
2019-05-30T05:27:45.229Z,19.00
2019-05-30T05:30:49.663Z,19.00
2019-05-30T05:33:57.058Z,19.00
2019-05-30T05:37:00.308Z,19.00
2019-05-30T05:40:04.999Z,19.00
2019-05-30T05:43:09.199Z,19.00
2019-05-30T05:46:13.752Z,19.00
2019-05-30T05:49:18.414Z,18.90
2019-05-30T05:52:24.859Z,18.90
2019-05-30T05:55:29.218Z,18.80
2019-05-30T05:58:33.597Z,18.70
2019-05-30T06:01:37.883Z,18.70
2019-05-30T06:04:42.265Z,18.70
2019-05-30T06:07:46.623Z,18.60
2019-05-30T06:10:50.971Z,18.60
2019-05-30T06:13:55.228Z,18.60
2019-05-30T06:16:59.474Z,18.50
2019-05-30T06:20:03.891Z,18.40
2019-05-30T06:23:08.306Z,18.40
2019-05-30T06:26:12.582Z,18.40
2019-05-30T06:29:17.898Z,18.40
2019-05-30T06:32:22.916Z,18.30
2019-05-30T06:35:27.540Z,18.30
2019-05-30T06:38:31.900Z,18.30
2019-05-30T06:41:36.332Z,18.30
2019-05-30T06:44:40.778Z,18.30
2019-05-30T06:47:45.002Z,18.30
2019-05-30T06:50:49.217Z,18.30
2019-05-30T06:53:53.461Z,18.30
2019-05-30T06:56:57.959Z,18.20
2019-05-30T07:00:02.287Z,18.20
2019-05-30T07:03:06.677Z,18.10
2019-05-30T07:06:11.322Z,18.00
2019-05-30T07:09:16.000Z,18.00
2019-05-30T07:12:20.360Z,18.00
2019-05-30T07:15:25.093Z,18.00
2019-05-30T07:18:33.362Z,17.90
2019-05-30T07:21:35.581Z,17.90
2019-05-30T07:24:40.042Z,17.90
2019-05-30T07:27:44.310Z,17.90
2019-05-30T07:30:48.621Z,17.90
2019-05-30T07:33:52.988Z,17.90
2019-05-30T07:36:57.312Z,18.00
2019-05-30T07:40:01.783Z,18.00
2019-05-30T07:43:06.303Z,18.10
2019-05-30T07:46:10.731Z,18.20
2019-05-30T07:49:14.971Z,18.20
2019-05-30T07:52:19.252Z,18.20
2019-05-30T07:55:23.594Z,18.30
2019-05-30T07:58:28.996Z,18.30
2019-05-30T08:01:34.650Z,18.30
2019-05-30T08:04:38.979Z,18.30
2019-05-30T08:07:43.251Z,18.30
2019-05-30T08:10:47.632Z,18.40
2019-05-30T08:13:52.033Z,18.40
2019-05-30T08:16:56.363Z,18.40
2019-05-30T08:20:00.702Z,18.30
2019-05-30T08:23:05.005Z,18.20
2019-05-30T08:26:09.299Z,18.20
2019-05-30T08:29:13.584Z,18.20
2019-05-30T08:32:17.924Z,18.10
2019-05-30T08:35:22.320Z,18.10
2019-05-30T08:38:26.636Z,18.10
2019-05-30T08:41:31.163Z,18.10
2019-05-30T08:44:35.906Z,18.10
2019-05-30T08:47:40.864Z,18.00
2019-05-30T08:50:45.186Z,18.10
2019-05-30T08:53:49.486Z,18.20
2019-05-30T08:56:53.801Z,18.30
2019-05-30T08:59:58.324Z,18.40
2019-05-30T09:03:02.700Z,18.40
2019-05-30T09:06:06.983Z,18.40
2019-05-30T09:09:11.740Z,18.50
2019-05-30T09:12:16.105Z,18.50
2019-05-30T09:15:22.246Z,18.50
2019-05-30T09:18:26.758Z,18.50
2019-05-30T09:21:31.217Z,18.50
2019-05-30T09:24:35.517Z,18.50
2019-05-30T09:27:40.800Z,18.50
2019-05-30T09:30:46.506Z,18.50
2019-05-30T09:33:53.469Z,18.50
2019-05-30T09:36:57.679Z,18.40
2019-05-30T09:40:01.970Z,18.40
2019-05-30T09:43:06.292Z,18.40
2019-05-30T09:46:10.698Z,18.40
2019-05-30T09:49:15.130Z,18.40
2019-05-30T09:52:19.573Z,18.40
2019-05-30T09:55:24.247Z,18.40
2019-05-30T09:58:28.627Z,18.40
2019-05-30T10:01:32.994Z,18.40
2019-05-30T10:04:37.661Z,18.40
2019-05-30T10:07:43.544Z,18.40
2019-05-30T10:10:49.558Z,18.50
2019-05-30T10:13:53.984Z,18.60
2019-05-30T10:16:59.365Z,18.70
2019-05-30T10:20:04.327Z,18.80
2019-05-30T10:23:09.444Z,18.80
2019-05-30T10:26:14.649Z,18.90
2019-05-30T10:29:20.462Z,18.90
2019-05-30T10:32:25.702Z,19.00
2019-05-30T10:35:31.169Z,19.00
2019-05-30T10:38:35.372Z,19.00
2019-05-30T10:41:39.622Z,19.00
2019-05-30T10:44:43.897Z,19.10
2019-05-30T10:47:49.409Z,19.10
2019-05-30T10:50:54.458Z,19.10
2019-05-30T10:53:58.857Z,19.00
2019-05-30T10:57:03.060Z,19.00
2019-05-30T11:00:09.922Z,18.90
2019-05-30T11:03:14.398Z,18.90
2019-05-30T11:06:34.717Z,18.80
2019-05-30T11:09:44.012Z,18.80
2019-05-30T11:12:49.541Z,18.70
2019-05-30T11:15:55.499Z,18.70
2019-05-30T11:19:00.084Z,18.70
2019-05-30T11:22:04.604Z,18.70
2019-05-30T11:25:09.013Z,18.70
2019-05-30T11:28:13.339Z,18.80
2019-05-30T11:31:17.714Z,18.90
2019-05-30T11:34:22.330Z,19.00
2019-05-30T11:37:26.745Z,19.00
2019-05-30T11:40:31.007Z,19.10
2019-05-30T11:43:35.357Z,19.10
2019-05-30T11:46:39.652Z,19.20
2019-05-30T11:49:43.943Z,19.20
2019-05-30T11:52:49.736Z,19.20
2019-05-30T11:55:54.256Z,19.20
2019-05-30T11:58:58.842Z,19.20
2019-05-30T12:02:03.483Z,19.30
2019-05-30T12:05:08.785Z,19.30
2019-05-30T12:08:13.101Z,19.30
2019-05-30T12:11:17.396Z,19.30
2019-05-30T12:14:21.793Z,19.20
2019-05-30T12:17:26.100Z,19.10
2019-05-30T12:20:30.504Z,19.00
2019-05-30T12:23:34.702Z,19.00
2019-05-30T12:26:38.961Z,19.00
2019-05-30T12:29:43.243Z,18.90
2019-05-30T12:32:47.871Z,19.00
2019-05-30T12:35:52.442Z,18.90
2019-05-30T12:38:56.839Z,18.90
2019-05-30T12:42:01.293Z,18.90
2019-05-30T12:45:07.365Z,19.00
2019-05-30T12:48:12.260Z,19.00
2019-05-30T12:51:16.635Z,19.10
2019-05-30T12:54:21.036Z,19.20
2019-05-30T12:57:25.369Z,19.20
2019-05-30T13:00:30.527Z,19.20
2019-05-30T13:03:34.915Z,19.30
2019-05-30T13:06:39.238Z,19.30
2019-05-30T13:09:43.654Z,19.30
2019-05-30T13:12:47.936Z,19.30
2019-05-30T13:15:52.253Z,19.40
2019-05-30T13:18:57.907Z,19.40
2019-05-30T13:22:03.377Z,19.40
2019-05-30T13:25:09.354Z,19.40
2019-05-30T13:28:16.720Z,19.30
2019-05-30T13:31:21.156Z,19.20
2019-05-30T13:34:25.520Z,19.10
2019-05-30T13:37:29.896Z,19.10
2019-05-30T13:40:34.618Z,19.10
2019-05-30T13:43:39.163Z,19.00
2019-05-30T13:46:43.543Z,19.00
2019-05-30T13:49:47.752Z,19.00
2019-05-30T13:52:52.178Z,19.00
2019-05-30T13:55:56.394Z,19.00
2019-05-30T13:59:01.717Z,19.10
2019-05-30T14:02:06.410Z,19.10
2019-05-30T14:05:11.314Z,19.20
2019-05-30T14:08:16.714Z,19.30
2019-05-30T14:11:21.219Z,19.30
2019-05-30T14:14:25.569Z,19.40
2019-05-30T14:17:29.851Z,19.40
2019-05-30T14:20:34.141Z,19.40
2019-05-30T14:23:38.576Z,19.50
2019-05-30T14:26:42.858Z,19.50
2019-05-30T14:29:47.144Z,19.50
2019-05-30T14:32:51.348Z,19.60
2019-05-30T14:35:55.692Z,19.60
2019-05-30T14:38:59.937Z,19.60
2019-05-30T14:42:05.036Z,19.60
2019-05-30T14:45:10.710Z,19.60
2019-05-30T14:48:15.075Z,19.50
2019-05-30T14:51:19.405Z,19.50
2019-05-30T14:54:23.952Z,19.40
2019-05-30T14:57:28.333Z,19.40
2019-05-30T15:00:32.656Z,19.40
2019-05-30T15:03:36.915Z,19.30
2019-05-30T15:06:41.292Z,19.30
2019-05-30T15:09:45.553Z,19.30
2019-05-30T15:12:49.985Z,19.30
2019-05-30T15:15:56.979Z,19.30
2019-05-30T15:19:00.478Z,19.30
2019-05-30T15:22:05.561Z,19.40
2019-05-30T15:25:10.147Z,19.50
2019-05-30T15:28:14.433Z,19.50
2019-05-30T15:31:18.814Z,19.50
2019-05-30T15:34:23.095Z,19.60
2019-05-30T15:37:27.463Z,19.60
2019-05-30T15:40:31.741Z,19.60
2019-05-30T15:43:36.156Z,19.60
2019-05-30T15:46:40.363Z,19.60
2019-05-30T15:49:44.740Z,19.70
2019-05-30T15:52:49.745Z,19.70
2019-05-30T15:55:54.110Z,19.70
2019-05-30T15:58:58.396Z,19.70
2019-05-30T16:02:02.719Z,19.70
2019-05-30T16:05:07.340Z,19.60
2019-05-30T16:08:12.625Z,19.60
2019-05-30T16:11:17.078Z,19.50
2019-05-30T16:14:21.610Z,19.40
2019-05-30T16:17:26.434Z,19.30
2019-05-30T16:20:30.878Z,19.30
2019-05-30T16:23:35.173Z,19.20
2019-05-30T16:26:39.579Z,19.20
2019-05-30T16:29:43.896Z,19.30
2019-05-30T16:32:48.267Z,19.40
2019-05-30T16:35:52.766Z,19.40
2019-05-30T16:38:57.131Z,19.40
2019-05-30T16:42:01.464Z,19.50
2019-05-30T16:45:08.577Z,19.50
2019-05-30T16:48:14.277Z,19.50
2019-05-30T16:51:18.825Z,19.50
2019-05-30T16:54:23.432Z,19.50
2019-05-30T16:57:27.934Z,19.50
2019-05-30T17:00:32.298Z,19.50
2019-05-30T17:03:36.642Z,19.50
2019-05-30T17:06:40.941Z,19.40
2019-05-30T17:09:45.460Z,19.40
2019-05-30T17:12:53.402Z,19.30
2019-05-30T17:15:58.590Z,19.20
2019-05-30T17:19:03.657Z,19.20
2019-05-30T17:22:10.375Z,19.10
2019-05-30T17:25:15.148Z,19.10
2019-05-30T17:28:20.323Z,19.10
2019-05-30T17:31:26.070Z,19.00
2019-05-30T17:34:30.652Z,19.00
2019-05-30T17:37:35.075Z,19.00
2019-05-30T17:40:44.952Z,19.10
2019-05-30T17:43:45.416Z,19.20
2019-05-30T17:46:49.740Z,19.30
2019-05-30T17:49:54.117Z,19.30
2019-05-30T17:52:58.521Z,19.40
2019-05-30T17:56:02.878Z,19.40
2019-05-30T17:59:07.143Z,19.40
2019-05-30T18:02:11.940Z,19.40
2019-05-30T18:05:17.333Z,19.40
2019-05-30T18:08:22.739Z,19.50
2019-05-30T18:11:27.309Z,19.50
2019-05-30T18:14:31.597Z,19.50
2019-05-30T18:17:36.048Z,19.50
2019-05-30T18:20:48.455Z,19.50
2019-05-30T18:23:47.216Z,19.40
2019-05-30T18:26:51.608Z,19.40
2019-05-30T18:29:56.024Z,19.30
2019-05-30T18:33:00.253Z,19.20
2019-05-30T18:36:04.729Z,19.20
2019-05-30T18:39:09.014Z,19.10
2019-05-30T18:42:13.335Z,19.10
2019-05-30T18:45:21.000Z,19.00
2019-05-30T18:48:25.331Z,19.00
2019-05-30T18:51:30.355Z,19.00
2019-05-30T18:54:34.733Z,19.00
2019-05-30T18:57:39.017Z,19.00
2019-05-30T19:00:43.368Z,19.10
2019-05-30T19:03:47.720Z,19.20
2019-05-30T19:06:52.020Z,19.30
2019-05-30T19:09:56.401Z,19.30
2019-05-30T19:13:00.710Z,19.30
2019-05-30T19:16:04.954Z,19.40
2019-05-30T19:19:09.356Z,19.40
2019-05-30T19:22:13.736Z,19.40
2019-05-30T19:25:18.084Z,19.50
2019-05-30T19:28:22.365Z,19.40
2019-05-30T19:31:26.727Z,19.50
2019-05-30T19:34:31.104Z,19.40
2019-05-30T19:37:35.522Z,19.50
2019-05-30T19:40:39.821Z,19.50
2019-05-30T19:43:44.122Z,19.40
2019-05-30T19:46:51.215Z,19.30
2019-05-30T19:49:55.624Z,19.20
2019-05-30T19:53:00.018Z,19.10
2019-05-30T19:56:04.411Z,19.00
2019-05-30T19:59:08.619Z,19.00
2019-05-30T20:02:14.612Z,18.90
2019-05-30T20:05:22.221Z,18.90
2019-05-30T20:08:26.562Z,18.90
2019-05-30T20:11:30.907Z,18.90
2019-05-30T20:14:35.202Z,18.90
2019-05-30T20:17:39.858Z,18.90
2019-05-30T20:20:56.387Z,19.00
2019-05-30T20:23:56.571Z,19.10
2019-05-30T20:26:57.226Z,19.20
2019-05-30T20:30:01.483Z,19.30
2019-05-30T20:33:06.068Z,19.30
2019-05-30T20:36:10.427Z,19.30
2019-05-30T20:39:14.880Z,19.30
2019-05-30T20:42:19.898Z,19.30
2019-05-30T20:45:24.273Z,19.40
2019-05-30T20:48:28.630Z,19.40
2019-05-30T20:51:35.022Z,19.40
2019-05-30T20:54:39.522Z,19.40
2019-05-30T20:57:43.878Z,19.40
2019-05-30T21:00:48.383Z,19.40
2019-05-30T21:03:53.198Z,19.40
2019-05-30T21:06:58.560Z,19.30
2019-05-30T21:10:03.735Z,19.20
2019-05-30T21:13:08.113Z,19.10
2019-05-30T21:16:15.647Z,19.10
2019-05-30T21:19:19.917Z,19.00
2019-05-30T21:22:24.253Z,19.00
2019-05-30T21:25:28.541Z,19.00
2019-05-30T21:28:32.942Z,19.00
2019-05-30T21:31:37.380Z,19.00
2019-05-30T21:34:42.362Z,19.00
2019-05-30T21:37:47.893Z,19.00
2019-05-30T21:40:52.441Z,19.10
2019-05-30T21:43:56.849Z,19.20
2019-05-30T21:47:01.299Z,19.20
2019-05-30T21:50:06.379Z,19.30
2019-05-30T21:53:10.653Z,19.30
2019-05-30T21:56:15.218Z,19.30
2019-05-30T21:59:19.820Z,19.30
2019-05-30T22:02:24.079Z,19.40
2019-05-30T22:05:28.499Z,19.40
2019-05-30T22:08:32.790Z,19.40
2019-05-30T22:11:37.210Z,19.40
2019-05-30T22:14:41.792Z,19.40
2019-05-30T22:17:46.116Z,19.40
2019-05-30T22:20:50.403Z,19.40
2019-05-30T22:23:54.923Z,19.40
2019-05-30T22:26:59.161Z,19.30
2019-05-30T22:30:03.545Z,19.20
2019-05-30T22:33:07.800Z,19.10
2019-05-30T22:36:12.173Z,19.10
2019-05-30T22:39:16.395Z,19.00
2019-05-30T22:42:20.700Z,19.00
2019-05-30T22:45:24.901Z,19.00
2019-05-30T22:48:29.288Z,19.00
2019-05-30T22:51:33.575Z,19.00
2019-05-30T22:54:37.826Z,19.00
2019-05-30T22:57:42.292Z,19.00
2019-05-30T23:00:47.810Z,19.10
2019-05-30T23:03:52.630Z,19.20
2019-05-30T23:06:58.141Z,19.20
2019-05-30T23:10:02.537Z,19.30
2019-05-30T23:13:06.837Z,19.30
2019-05-30T23:16:11.065Z,19.40
2019-05-30T23:19:15.438Z,19.40
2019-05-30T23:22:19.732Z,19.40
2019-05-30T23:25:24.053Z,19.40
2019-05-30T23:28:28.511Z,19.40
2019-05-30T23:31:32.783Z,19.40
2019-05-30T23:34:37.000Z,19.50
2019-05-30T23:37:41.564Z,19.50
2019-05-30T23:40:45.771Z,19.50
2019-05-30T23:43:58.021Z,19.40
2019-05-30T23:46:57.735Z,19.30
2019-05-30T23:50:01.961Z,19.20
2019-05-30T23:53:06.231Z,19.20
2019-05-30T23:56:10.472Z,19.10
2019-05-30T23:59:14.676Z,19.10
